Mirzo Hasanov

Chief Scout - Navbahor
4 Dec 2028
Monday
Process

Personality

Adaptability (7) Ambition (8) Controversy (1) Loyalty (16) Pressure (7) Professionalism (13) Sportsmanship (20) Temperament (1)

Profile

Coaching Style Democratic
License National B
Determination 7
Man Management 3
Motivating 7
Discipline 7
Job Satisfaction
100%
Fatigue
0%
Role Chief Scout
Wage 18.6K p/w
Contract 14.03.2029

Performance

Behaviour Good
Training Effectiveness
31%
Player Development
50%
Injury Prevention
20%
Tactical Implementation
35%

Recent Events

Attended a recruitment meeting 7d ago
Attended a recruitment meeting 14d ago
Attended a recruitment meeting 21d ago
Attended a recruitment meeting 28d ago
Attended a recruitment meeting 35d ago
Attended a recruitment meeting 42d ago
Attended a recruitment meeting 49d ago
Attended a recruitment meeting 56d ago

Currently Monitoring

164
Player Club Status Ability Confidence Watched Last Observed Latest Vote
Evgeny Voronin Volga Active 106 / 103 40% 4 30.05.2028 -
Vladislav Sarveli Nizhniy Novgorod Active 108 / 102 40% 1 30.05.2028 -
Matty Stevens AFC Wimbledon Active 127 / 111 40% 5 29.05.2028 -
Harry Cornick AFC Wimbledon Active 109 / 98 40% 3 29.05.2028 -
Danny Butterworth Accrington Stanley Active 83 / 101 40% 1 28.05.2028 -
Said Aliev Rotor Active 97 / 108 40% 1 28.05.2028 -
Giuseppe Panico Foggia Active 118 / 126 40% 2 27.05.2028 -
Timur Suleimanov Nizhniy Novgorod Active 132 / 132 40% 2 27.05.2028 -
Alexandr Yushin Torpedo Moscow Active 118 / 109 40% 7 26.05.2028 -
Danil Akhatov Ufa Active 96 / 106 40% 1 26.05.2028 -
John Kelly Fleetwood Town Active 83 / 91 40% 2 24.05.2028 -
Millar Matthews-Lewis Tranmere Rovers Active 114 / 101 40% 3 23.05.2028 -
Alan Cisnero Exeter City Active 104 / 108 40% 1 23.05.2028 -
Sergey Gaiduk Salyut Active 70 / 74 40% 1 22.05.2028 -
Jacobo Alcalde SKA Khabarovsk Active 93 / 93 40% 1 22.05.2028 -
Merabi Uridia Fakel Active 87 / 106 40% 5 21.05.2028 -
Gevork Sarkisyan Saturn Active 84 / 79 40% 1 21.05.2028 -
Migran Ageyan Ufa Active 114 / 110 40% 2 19.05.2028 -
Facundo Lescano Salernitana Active 133 / 104 40% 1 19.05.2028 -
Vladislav Yakovlev Volga Active 83 / 82 40% 3 18.05.2028 -
François Kamano Sochi Active 111 / 120 40% 4 17.05.2028 -
Domi Berlanga Cavese Active 112 / 102 40% 1 17.05.2028 -
Vyacheslav Grulev Nizhniy Novgorod Active 103 / 124 40% 5 14.05.2028 -
Amur Kalmykov Spartak Kostroma Active 115 / 91 40% 4 11.05.2028 -
Nikolay Ischenko Chaika Active 103 / 89 40% 3 11.05.2028 -
Thomas Henry Reggiana Active 103 / 120 40% 1 08.05.2028 -
Vladimir Khubulov Dinamo Makhachkala Active 122 / 112 40% 1 05.05.2028 -
Jacopo Manconi Casertana Active 118 / 108 40% 1 05.05.2028 -
Nikita Kireev Dinamo Vologda Active 70 / 91 40% 2 04.05.2028 -
Louis Flower Crawley Town Active 96 / 85 40% 1 04.05.2028 -
Kirill Cheburakov Rostov Active 78 / 88 40% 2 01.05.2028 -
Francesco Galuppini Ascoli Active 118 / 102 40% 1 01.05.2028 -
Axel Gnapi Dable Fakel Active 92 / 97 40% 3 30.04.2028 -
Marcus Dinanga Bromley Active 106 / 93 40% 1 30.04.2028 -
Federico Di Francesco Catanzaro Active 126 / 125 40% 1 29.04.2028 -
Ismail Achik Salernitana Active 116 / 110 40% 2 27.04.2028 -
Georgy Gongadze Ufa Active 97 / 98 40% 4 21.04.2028 -
Vladimir Iljin Sochi Active 102 / 112 40% 2 18.04.2028 -
Gilson Benchimol Baltika Active 129 / 122 40% 1 18.04.2028 -
Mattia Iori Lumezzane Active 108 / 100 40% 1 17.04.2028 -
Ilja Rubtsov Chaika Active 90 / 93 40% 5 16.04.2028 -
David Davidyan Rotor Active 93 / 98 40% 2 16.04.2028 -
Magomed Nasibov Pobeda Active 95 / 97 40% 2 15.04.2028 -
Ilja Porokhov Shinnik Active 95 / 80 40% 3 14.04.2028 -
Kimarni Smith Newport County Active 83 / 100 40% 1 14.04.2028 -
Razhab Magomedov Dinamo Makhachkala Active 120 / 108 40% 3 13.04.2028 -
Duncan Watmore Barnsley Active 124 / 124 40% 1 11.04.2028 -
Danila Yezhkov Dinamo Vologda Active 98 / 83 40% 1 09.04.2028 -
Jamie Reid Stevenage Active 107 / 111 40% 1 09.04.2028 -
Mikhail Ignatov Sochi Active 118 / 104 40% 3 08.04.2028 -
Alexandr Saplinov Volga Active 94 / 113 40% 2 08.04.2028 -
Matija Popović Fakel Active 97 / 127 40% 1 06.04.2028 -
Surkhaikhan Abdullaev KAMAZ Active 98 / 105 40% 3 03.04.2028 -
Luca Vido Union Brescia Active 116 / 124 40% 1 03.04.2028 -
Dmitry Kamenschikov Chernomorets Active 94 / 87 40% 3 02.04.2028 -
Miro Arsenal Tula Active 102 / 116 40% 1 01.04.2028 -
Miguel Falé Pacos de Ferreira Active 93 / 120 40% 1 29.03.2028 -
David Karaev KAMAZ Active 113 / 93 40% 1 29.03.2028 -
Soslan Lysenko Spartak Nalchik Active 72 / 74 40% 1 15.03.2028 -
Ettore Gliozzi Mantova Active 129 / 133 40% 1 09.03.2028 -
Kamran Aliev SKA Khabarovsk Active 90 / 97 40% 2 03.03.2028 -
Jorginho Kairat Active 109 / 115 40% 1 02.03.2028 -
Everton Moraes Shakhter Active 118 / 111 40% 2 01.03.2028 -
Dmitry Kuptsov Spartak Tambov Active 72 / 97 40% 3 29.02.2028 -
Alexey Antilevskiy Slavia Mozyr Active 99 / 78 40% 5 26.02.2028 -
Paolo Yrizar Chernomorets Active 84 / 88 40% 1 25.02.2028 -
Ivan Gulko KAMAZ Active 87 / 94 40% 1 25.02.2028 -
Alexandr Lomovitskiy Torpedo-BelAZ Active 95 / 121 40% 1 23.02.2028 -
Alexandr Kovalenko Sochi Active 134 / 127 40% 1 23.02.2028 -
Vladimir Uljanovskiy Chelyabinsk Active 80 / 97 40% 1 22.02.2028 -
Vladislav Tyurin Saturn Active 85 / 75 40% 1 21.02.2028 -
Artem Ntumba Rubin Yalta Active 79 / 68 40% 1 18.02.2028 -
Ljupce Doriev Sogdiana Active 111 / 104 40% 8 17.02.2028 -
Maxim Kutovoy Salyut Active 80 / 85 40% 3 17.02.2028 -
Steven Alfred Torpedo-BelAZ Active 91 / 107 40% 4 16.02.2028 -
Serder Serderov Dinamo Makhachkala Active 86 / 94 40% 1 16.02.2028 -
Alexandre Jesus Orenburg Active 120 / 118 40% 1 15.02.2028 -
Denis Rubanov Dinamo Stavropol Active 99 / 86 40% 1 15.02.2028 -
Daniel Sosah Aktobe Active 110 / 107 40% 1 13.02.2028 -
Roman Yuzepchuk Dinamo Brest Active 84 / 110 40% 1 13.02.2028 -
Vladislav Fedosov Slutsk Active 80 / 87 40% 1 13.02.2028 -
Oleksiy Shchebetun Qizilqum Active 88 / 99 40% 3 12.02.2028 -
Bertrand Fourrier Dinamo Makhachkala Active 113 / 116 40% 2 12.02.2028 -
Andrey Solovey Slavia Mozyr Active 100 / 92 40% 3 10.02.2028 -
Andrey Mazurin Yenisey Active 110 / 95 40% 1 10.02.2028 -
Alan Khabalov Ufa Active 100 / 90 40% 1 08.02.2028 -
Đorđe Pantelić Spartak Kostroma Active 120 / 91 40% 1 08.02.2028 -
Stefan Lončar Akron Active 123 / 125 40% 1 07.02.2028 -
Sergey Pushnyakov Neman Active 93 / 106 40% 2 05.02.2028 -
Omar Popov Dinamo St Petersburg Active 72 / 67 40% 1 04.02.2028 -
Artem Stepanovich Sevastopol Active 82 / 98 40% 1 04.02.2028 -
Denis Pokotylo Chelyabinsk Active 95 / 84 40% 1 04.02.2028 -
Moustapha Djimet Dinamo Minsk Active 96 / 90 40% 2 02.02.2028 -
Daniil Agureev Amkar Active 106 / 78 40% 3 01.02.2028 -
Imeda Ashortia Andijon Active 107 / 111 40% 3 31.01.2028 -
Dilshod Abdullayev Pakhtakor Active 100 / 103 55% 1 31.01.2028 -
Nikita Trapitsyn Zenit Active 69 / 76 40% 1 31.01.2028 -
Andrey Nikitin Neftekhimik Active 109 / 96 40% 1 31.01.2028 -
Franco Ayunta Temperley Active 108 / 111 40% 2 29.01.2028 -
Danil Lipovoy Ufa Active 104 / 104 40% 1 29.01.2028 -
Marc Gual Kairat Active 113 / 120 40% 1 27.01.2028 -
Léo Natel Ordabasy Active 113 / 111 40% 2 21.01.2028 -
Luca Franco Arsenal Active 121 / 111 40% 5 20.01.2028 -
Daniil Motorin Rubin Active 90 / 85 40% 1 20.01.2028 -
Anton Betyuzhnov Dinamo Vologda Active 70 / 88 40% 2 18.01.2028 -
Uroš Kojić AGMK Active 113 / 92 40% 3 13.01.2028 -
Maxim Maximov Slavia Mozyr Active 109 / 96 40% 3 13.01.2028 -
Aziz Xolmurodov AGMK Active 102 / 115 40% 4 11.01.2028 -
Martin Sekulić Ural Active 111 / 106 40% 1 10.01.2028 -
Ilja Safronov Rotor Active 103 / 104 40% 2 09.01.2028 -
Zoran Marušić Neftchi Active 110 / 99 40% 7 01.01.2028 -
Vlatko Stojanovski Mashal Active 92 / 86 40% 1 27.12.2027 -
Alexander Jeremejeff Persija Active 105 / 118 40% 2 19.12.2027 -
Juan David Rueda Alianza Petrolera Active 97 / 119 40% 3 17.12.2027 -
Gustavo Viera Cerro Largo Active 103 / 108 40% 3 14.12.2027 -
Luka Čumić PSM Active 94 / 93 40% 4 11.12.2027 -
Amir Nematov Obod Active 88 / 88 40% 1 11.12.2027 -
Andrew Jung Persib Active 98 / 98 40% 1 05.12.2027 -
Kianz Froese Semen Padang Active 96 / 95 40% 1 04.12.2027 -
Vladislav Lozhkin Dinamo Brest Active 111 / 109 40% 2 02.12.2027 -
Luka Đorđević Sogdiana Active 93 / 90 40% 2 30.11.2027 -
Nuriddin Nuriddinov Mashal Active 95 / 81 40% 1 30.11.2027 -
Denis M. Kovalevich Dinamo Brest Active 88 / 91 40% 2 29.11.2027 -
Fortune Bassey Bunyodkor Active 110 / 100 40% 1 25.11.2027 -
Jort van der Sande Bali United Active 117 / 110 40% 1 24.11.2027 -
Adrián Dalmau PSIM Active 109 / 107 40% 3 23.11.2027 -
Nermin Haljeta PSIM Active 99 / 108 40% 2 20.11.2027 -
Martin Boakye Andijon Active 108 / 104 40% 1 20.11.2027 -
Dominik Begić Bukhara Active 86 / 107 40% 4 10.11.2027 -
Alexandr Anufriev Vitebsk Active 95 / 102 40% 1 08.11.2027 -
Ilja Stefanovich Leningradets Active 85 / 86 40% 1 02.11.2027 -
Yusuf Otubanjo Nasaf Active 125 / 117 40% 1 02.11.2027 -
Gustavo França Arema Active 100 / 94 40% 1 01.11.2027 -
Pavel Savitskiy Neman Active 101 / 87 40% 2 28.10.2027 -
Valdeci Arema Active 101 / 99 40% 1 25.10.2027 -
Abu Kamara Persis Active 88 / 90 40% 1 20.10.2027 -
Ilya Tishurov Osipovichi Active 79 / 88 40% 1 19.10.2027 -
Uilliam Barros Persib Active 116 / 111 40% 1 15.10.2027 -
Diego Campos Bali United Active 103 / 109 40% 1 13.10.2027 -
Nikita Golub Belshina Active 92 / 97 40% 1 12.10.2027 -
Igor Monich Naftan Active 69 / 78 40% 1 09.10.2027 -
Daouda Natama Minsk Active 110 / 105 40% 2 06.10.2027 -
Sudi Abdallah Persijap Active 87 / 104 40% 1 03.10.2027 -
Carlos Ramírez Zulia Active 99 / 97 40% 1 01.10.2027 -
Kirill Kirilenko Dnepr Mogilev Active 73 / 106 40% 1 30.09.2027 -
Toma Tabatadze Kokand 1912 Active 101 / 107 40% 2 26.09.2027 -
Koldo Obieta Borneo Active 111 / 95 40% 2 25.09.2027 -
Cheickna Samaké Persija Active 92 / 108 40% 1 23.09.2027 -
Evgeniy Shevchenko Slavia Mozyr Active 88 / 88 40% 1 21.09.2027 -
Dmitriy Vashkevich Dinamo Brest Active 98 / 97 40% 1 16.09.2027 -
Matías Samaniego Talleres Active 86 / 112 40% 1 16.09.2027 -
John Valladares Santiago Wanderers Active 80 / 95 40% 1 14.09.2027 -
Asadbek Jo'raboyev Bukhara Active 89 / 103 40% 1 12.09.2027 -
Edmilson Kairat Active 114 / 109 40% 1 05.09.2027 -
Jesse Akila Taraz Active 103 / 96 40% 1 05.09.2027 -
Karen Vardanyan Dinamo Minsk Active 85 / 90 40% 1 30.08.2027 -
Bjørn Johnsen Active 100 / 115 40% 2 24.08.2027 -
Grenik Petrosyan Torpedo-BelAZ Active 89 / 102 40% 1 22.08.2027 -
Suleiman Abdullahi Atyrau Active 90 / 100 40% 1 17.08.2027 -
Sheriddin Boboev PSM Active 91 / 105 40% 1 15.08.2027 -
Ersūltan Töreqūl Taraz Active 75 / 80 40% 1 11.08.2027 -
Shahzod Rahmatullayev Qizilqum Active 83 / 95 51% 1 01.06.2027 -
Muhammadkarim Toirov Andijon Active 110 / 93 44% 1 10.08.2026 -
Karlen Hovhannisyan Akron Active 93 / 112 40% 1 02.08.2026 -